createdAt,value
2023-02-15T00:02:04.788Z,89.33
2023-02-15T00:04:46.448Z,89.20
2023-02-15T00:07:18.115Z,88.99
2023-02-15T00:09:49.633Z,89.24
2023-02-15T00:12:19.805Z,88.66
2023-02-15T00:14:47.539Z,89.09
2023-02-15T00:17:15.307Z,88.96
2023-02-15T00:19:43.052Z,89.49
2023-02-15T00:22:11.002Z,89.07
2023-02-15T00:24:40.125Z,89.95
2023-02-15T00:27:07.912Z,89.49
2023-02-15T00:29:35.716Z,89.40
2023-02-15T00:32:03.595Z,89.47
2023-02-15T00:34:31.357Z,89.45
2023-02-15T00:36:59.227Z,89.33
2023-02-15T00:39:28.228Z,89.39
2023-02-15T00:41:57.354Z,89.36
2023-02-15T00:44:25.170Z,89.41
2023-02-15T00:46:52.929Z,89.45
2023-02-15T00:49:20.741Z,89.30
2023-02-15T00:51:48.535Z,89.98
2023-02-15T00:54:16.392Z,89.68
2023-02-15T00:56:44.166Z,90.49
2023-02-15T00:59:13.385Z,90.80
2023-02-15T01:01:41.205Z,90.61
2023-02-15T01:04:09.067Z,90.78
2023-02-15T01:06:37.160Z,90.77
2023-02-15T01:09:05.276Z,91.23
2023-02-15T01:11:33.092Z,91.44
2023-02-15T01:14:01.186Z,91.46
2023-02-15T01:16:32.259Z,91.23
2023-02-15T01:19:00.015Z,92.07
2023-02-15T01:21:28.438Z,91.64
2023-02-15T01:23:56.217Z,91.81
2023-02-15T01:26:24.279Z,91.93
2023-02-15T01:28:52.018Z,92.31
2023-02-15T01:31:21.713Z,92.03
2023-02-15T01:33:51.479Z,92.38
2023-02-15T01:36:19.222Z,92.42
2023-02-15T01:38:47.307Z,91.56
2023-02-15T01:41:28.093Z,91.76
2023-02-15T01:43:57.369Z,92.54
2023-02-15T01:46:32.948Z,92.63
2023-02-15T01:49:09.052Z,92.52
2023-02-15T01:51:40.428Z,93.61
2023-02-15T01:54:15.730Z,93.99
2023-02-15T01:56:44.056Z,94.16
2023-02-15T01:59:15.556Z,94.08
2023-02-15T02:01:46.639Z,94.54
2023-02-15T02:04:20.822Z,94.61
2023-02-15T02:06:50.921Z,94.49
2023-02-15T02:09:18.752Z,95.54
2023-02-15T02:11:49.729Z,95.42
2023-02-15T02:14:18.680Z,95.55
2023-02-15T02:16:54.375Z,96.07
2023-02-15T02:19:56.412Z,96.74
2023-02-15T02:22:47.429Z,96.25
2023-02-15T02:25:33.094Z,96.74
2023-02-15T02:28:18.630Z,97.26
2023-02-15T02:31:04.879Z,97.60
2023-02-15T02:33:56.301Z,97.73
2023-02-15T02:36:30.947Z,97.90
2023-02-15T02:39:14.858Z,98.27
2023-02-15T02:41:52.784Z,98.08
2023-02-15T02:44:25.659Z,98.09
2023-02-15T02:46:56.814Z,98.06
2023-02-15T02:49:37.348Z,98.57
2023-02-15T02:52:08.802Z,98.59
2023-02-15T02:54:38.024Z,98.93
2023-02-15T02:57:10.848Z,98.93
2023-02-15T02:59:43.697Z,99.07
2023-02-15T03:02:15.694Z,98.43
2023-02-15T03:04:50.385Z,98.69
2023-02-15T03:07:23.210Z,99.03
2023-02-15T03:09:53.506Z,98.50
2023-02-15T03:12:24.240Z,98.57
2023-02-15T03:14:55.283Z,98.74
2023-02-15T03:17:25.622Z,98.72
2023-02-15T03:19:59.690Z,99.00
2023-02-15T03:22:31.131Z,98.97
2023-02-15T03:25:01.818Z,98.93
2023-02-15T03:27:35.564Z,98.84
2023-02-15T03:30:04.514Z,99.60
2023-02-15T03:32:34.441Z,99.31
2023-02-15T03:35:04.227Z,99.28
2023-02-15T03:37:37.588Z,99.64
2023-02-15T03:40:25.841Z,99.64
2023-02-15T03:43:04.550Z,99.63
2023-02-15T03:45:35.290Z,99.91
2023-02-15T03:48:05.160Z,100.00
2023-02-15T03:50:55.840Z,100.00
2023-02-15T03:53:25.532Z,99.92
2023-02-15T03:55:56.778Z,100.00
2023-02-15T03:58:41.960Z,100.00
2023-02-15T04:01:38.064Z,100.00
2023-02-15T04:04:12.649Z,100.00
2023-02-15T04:06:41.752Z,100.00
2023-02-15T04:09:26.792Z,100.00
2023-02-15T04:11:54.562Z,100.00
2023-02-15T04:14:39.599Z,100.00
2023-02-15T04:17:07.831Z,100.00
2023-02-15T04:19:53.438Z,100.00
2023-02-15T04:22:40.117Z,100.00
2023-02-15T04:25:13.967Z,100.00
2023-02-15T04:27:43.457Z,100.00
2023-02-15T04:30:13.770Z,100.00
2023-02-15T04:32:41.936Z,100.00
2023-02-15T04:35:10.767Z,100.00
2023-02-15T04:37:40.768Z,100.00
2023-02-15T04:40:09.981Z,100.00
2023-02-15T04:42:37.801Z,100.00
2023-02-15T04:45:06.535Z,100.00
2023-02-15T04:47:34.382Z,100.00
2023-02-15T04:50:02.164Z,100.00
2023-02-15T04:52:29.932Z,100.00
2023-02-15T04:54:59.111Z,100.00
2023-02-15T04:57:26.900Z,100.00
2023-02-15T04:59:54.663Z,100.00
2023-02-15T05:02:22.412Z,100.00
2023-02-15T05:04:50.135Z,100.00
2023-02-15T05:07:18.616Z,100.00
2023-02-15T05:09:46.396Z,100.00
2023-02-15T05:12:15.505Z,100.00
2023-02-15T05:14:43.314Z,100.00
2023-02-15T05:17:11.033Z,100.00
2023-02-15T05:19:38.816Z,100.00
2023-02-15T05:22:06.624Z,100.00
2023-02-15T05:24:51.654Z,100.00
2023-02-15T05:27:38.627Z,100.00
2023-02-15T05:30:12.508Z,100.00
2023-02-15T05:32:40.804Z,100.00
2023-02-15T05:35:09.543Z,100.00
2023-02-15T05:37:37.330Z,100.00
2023-02-15T05:40:05.423Z,100.00
2023-02-15T05:42:34.784Z,100.00
2023-02-15T05:45:04.720Z,100.00
2023-02-15T05:47:32.488Z,100.00
2023-02-15T05:50:01.462Z,100.00
2023-02-15T05:52:29.178Z,100.00
2023-02-15T05:54:56.875Z,100.00
2023-02-15T05:57:24.706Z,100.00
2023-02-15T05:59:53.828Z,100.00
2023-02-15T06:02:21.665Z,100.00
2023-02-15T06:04:49.535Z,100.00
2023-02-15T06:07:17.242Z,100.00
2023-02-15T06:09:45.028Z,100.00
2023-02-15T06:12:15.629Z,100.00
2023-02-15T06:14:43.430Z,100.00
2023-02-15T06:17:12.551Z,100.00
2023-02-15T06:19:40.283Z,100.00
2023-02-15T06:22:08.379Z,100.00
2023-02-15T06:24:36.172Z,100.00
2023-02-15T06:27:03.896Z,100.00
2023-02-15T06:29:31.649Z,100.00
2023-02-15T06:31:59.492Z,100.00
2023-02-15T06:34:28.860Z,100.00
2023-02-15T06:36:56.627Z,100.00
2023-02-15T06:39:24.326Z,100.00
2023-02-15T06:41:52.175Z,100.00
2023-02-15T06:44:19.888Z,100.00
2023-02-15T06:46:47.776Z,100.00
2023-02-15T06:49:15.539Z,100.00
2023-02-15T06:51:44.766Z,100.00
2023-02-15T06:54:12.673Z,100.00
2023-02-15T06:56:40.463Z,100.00
2023-02-15T06:59:08.218Z,100.00
2023-02-15T07:01:37.937Z,100.00
2023-02-15T07:04:06.258Z,100.00
2023-02-15T07:06:34.933Z,100.00
2023-02-15T07:09:04.144Z,100.00
2023-02-15T07:11:50.443Z,100.00
2023-02-15T07:14:18.187Z,100.00
2023-02-15T07:16:45.959Z,100.00
2023-02-15T07:19:16.650Z,100.00
2023-02-15T07:21:44.995Z,100.00
2023-02-15T07:24:14.168Z,100.00
2023-02-15T07:26:41.875Z,100.00
2023-02-15T07:29:10.033Z,100.00
2023-02-15T07:31:37.778Z,100.00
2023-02-15T07:34:07.350Z,100.00
2023-02-15T07:36:35.114Z,100.00
2023-02-15T07:39:02.882Z,100.00
2023-02-15T07:41:32.031Z,100.00
2023-02-15T07:43:59.789Z,100.00
2023-02-15T07:46:27.561Z,100.00
2023-02-15T07:48:55.546Z,100.00
2023-02-15T07:51:23.475Z,100.00
2023-02-15T07:53:52.511Z,100.00
2023-02-15T07:56:20.332Z,100.00
2023-02-15T07:58:56.761Z,100.00
2023-02-15T08:01:26.534Z,100.00
2023-02-15T08:03:55.420Z,100.00
2023-02-15T08:06:24.722Z,100.00
2023-02-15T08:08:52.571Z,100.00
2023-02-15T08:11:30.192Z,100.00
2023-02-15T08:14:01.281Z,100.00
2023-02-15T08:16:31.865Z,100.00
2023-02-15T08:19:01.077Z,100.00
2023-02-15T08:21:30.381Z,100.00
2023-02-15T08:23:58.468Z,100.00
2023-02-15T08:26:27.662Z,100.00
2023-02-15T08:28:55.991Z,100.00
2023-02-15T08:31:25.596Z,100.00
2023-02-15T08:33:55.240Z,100.00
2023-02-15T08:36:24.856Z,100.00
2023-02-15T08:38:52.782Z,100.00
2023-02-15T08:41:22.393Z,100.00
2023-02-15T08:43:53.198Z,100.00
2023-02-15T08:46:21.609Z,100.00
2023-02-15T08:48:50.845Z,100.00
2023-02-15T08:51:20.937Z,100.00
2023-02-15T08:53:51.077Z,100.00
2023-02-15T08:56:20.435Z,100.00
2023-02-15T08:58:48.376Z,100.00
2023-02-15T09:01:19.248Z,100.00
2023-02-15T09:03:48.052Z,100.00
2023-02-15T09:06:17.845Z,100.00
2023-02-15T09:08:45.923Z,100.00
2023-02-15T09:11:17.697Z,100.00
2023-02-15T09:13:46.138Z,100.00
2023-02-15T09:16:13.903Z,100.00
2023-02-15T09:18:41.789Z,100.00
2023-02-15T09:21:10.754Z,100.00
2023-02-15T09:23:39.818Z,100.00
2023-02-15T09:26:09.851Z,100.00
2023-02-15T09:28:37.826Z,100.00
2023-02-15T09:31:10.769Z,100.00
2023-02-15T09:33:39.903Z,100.00
2023-02-15T09:36:15.384Z,100.00
2023-02-15T09:38:44.627Z,100.00
2023-02-15T09:41:40.124Z,100.00
2023-02-15T09:44:19.280Z,100.00
2023-02-15T09:47:03.818Z,100.00
2023-02-15T09:49:43.132Z,100.00
2023-02-15T09:52:41.430Z,100.00
2023-02-15T09:55:27.658Z,100.00
2023-02-15T09:58:04.356Z,100.00
2023-02-15T10:00:40.454Z,100.00
2023-02-15T10:03:41.998Z,100.00
2023-02-15T10:06:29.856Z,100.00
2023-02-15T10:09:08.922Z,100.00
2023-02-15T10:11:51.653Z,100.00
2023-02-15T10:14:43.267Z,100.00
2023-02-15T10:17:23.872Z,100.00
2023-02-15T10:20:06.572Z,100.00
2023-02-15T10:22:45.514Z,100.00
2023-02-15T10:25:33.105Z,100.00
2023-02-15T10:28:07.520Z,100.00
2023-02-15T10:30:46.778Z,100.00
2023-02-15T10:33:26.389Z,100.00
2023-02-15T10:36:04.284Z,99.81
2023-02-15T10:38:42.302Z,99.77
2023-02-15T10:41:24.289Z,99.62
2023-02-15T10:44:07.452Z,99.30
2023-02-15T10:46:50.379Z,98.29
2023-02-15T10:49:34.946Z,97.56
2023-02-15T10:52:19.622Z,97.62
2023-02-15T10:54:53.704Z,96.80
2023-02-15T10:57:32.775Z,96.48
2023-02-15T11:00:10.447Z,96.25
2023-02-15T11:02:52.498Z,96.13
2023-02-15T11:05:33.528Z,96.31
2023-02-15T11:08:05.980Z,94.99
2023-02-15T11:10:38.179Z,94.50
2023-02-15T11:13:11.321Z,94.59
2023-02-15T11:15:46.412Z,93.84
2023-02-15T11:18:21.265Z,92.83
2023-02-15T11:20:56.620Z,92.07
2023-02-15T11:23:27.020Z,91.11
2023-02-15T11:25:58.821Z,90.79
2023-02-15T11:28:33.298Z,90.41
2023-02-15T11:31:12.534Z,89.68
2023-02-15T11:33:45.372Z,88.49
2023-02-15T11:36:18.201Z,88.08
2023-02-15T11:38:49.226Z,87.31
2023-02-15T11:41:21.177Z,86.81
2023-02-15T11:44:00.523Z,86.07
2023-02-15T11:46:29.856Z,86.22
2023-02-15T11:48:59.334Z,85.80
2023-02-15T11:51:29.878Z,86.34
2023-02-15T11:53:58.538Z,86.21
2023-02-15T11:56:27.845Z,85.50
2023-02-15T11:58:59.281Z,84.44
2023-02-15T12:01:33.892Z,84.11
2023-02-15T12:04:06.200Z,84.32
2023-02-15T12:06:39.683Z,83.54
2023-02-15T12:09:23.488Z,83.20
2023-02-15T12:11:51.488Z,82.66
2023-02-15T12:14:19.253Z,81.49
2023-02-15T12:16:51.227Z,81.48
2023-02-15T12:19:40.944Z,81.37
2023-02-15T12:22:20.524Z,80.50
2023-02-15T12:24:50.031Z,80.09
2023-02-15T12:27:23.355Z,79.33
2023-02-15T12:29:53.331Z,78.75
2023-02-15T12:32:27.677Z,78.67
2023-02-15T12:35:02.298Z,78.13
2023-02-15T12:37:35.669Z,78.39
2023-02-15T12:40:20.686Z,77.24
2023-02-15T12:42:48.422Z,77.58
2023-02-15T12:45:26.244Z,77.01
2023-02-15T12:48:16.908Z,75.84
2023-02-15T12:50:45.693Z,76.88
2023-02-15T12:53:19.850Z,76.29
2023-02-15T12:55:56.657Z,76.39
2023-02-15T12:58:26.347Z,75.22
2023-02-15T13:01:11.904Z,74.78
2023-02-15T13:03:57.379Z,74.05
2023-02-15T13:06:25.352Z,74.44
2023-02-15T13:08:56.080Z,74.42
2023-02-15T13:11:30.296Z,73.75
2023-02-15T13:14:01.397Z,73.79
2023-02-15T13:16:33.832Z,73.36
2023-02-15T13:19:07.598Z,72.67
2023-02-15T13:21:40.713Z,72.82
2023-02-15T13:24:17.403Z,73.03
2023-02-15T13:26:48.173Z,72.91
2023-02-15T13:29:23.399Z,73.23
2023-02-15T13:31:52.256Z,73.06
2023-02-15T13:34:26.917Z,72.75
2023-02-15T13:37:03.234Z,72.26
2023-02-15T13:39:41.157Z,72.50
2023-02-15T13:42:22.399Z,72.69
2023-02-15T13:45:04.983Z,72.48
2023-02-15T13:47:45.410Z,72.72
2023-02-15T13:50:30.716Z,72.55
2023-02-15T13:53:04.600Z,73.05
2023-02-15T13:55:38.624Z,72.38
2023-02-15T13:58:52.467Z,72.76
2023-02-15T14:01:28.569Z,73.31
2023-02-15T14:04:35.080Z,72.94
2023-02-15T14:07:22.129Z,72.68
2023-02-15T14:09:59.796Z,73.10
2023-02-15T14:12:40.898Z,73.33
2023-02-15T14:15:24.728Z,73.16
2023-02-15T14:18:02.914Z,73.15
2023-02-15T14:20:45.197Z,73.40
2023-02-15T14:23:30.543Z,73.48
2023-02-15T14:26:04.078Z,73.73
2023-02-15T14:28:39.823Z,73.86
2023-02-15T14:31:11.534Z,73.47
2023-02-15T14:33:41.282Z,73.47
2023-02-15T14:36:12.936Z,73.67
2023-02-15T14:39:00.915Z,73.17
2023-02-15T14:41:33.686Z,72.94
2023-02-15T14:44:08.326Z,73.32
2023-02-15T14:46:41.364Z,72.50
2023-02-15T14:49:14.280Z,72.83
2023-02-15T14:52:00.105Z,72.62
2023-02-15T14:55:01.478Z,72.23
2023-02-15T14:57:36.193Z,72.37
2023-02-15T15:00:37.704Z,72.18
2023-02-15T15:03:13.912Z,71.99
2023-02-15T15:05:51.817Z,72.00
2023-02-15T15:08:28.451Z,72.10
2023-02-15T15:10:57.716Z,72.19
2023-02-15T15:13:40.583Z,71.60
2023-02-15T15:16:31.623Z,71.88
2023-02-15T15:19:00.233Z,71.66
2023-02-15T15:22:03.868Z,71.26
2023-02-15T15:24:52.019Z,71.63
2023-02-15T15:27:46.013Z,71.59
2023-02-15T15:30:51.052Z,71.75
2023-02-15T15:33:39.438Z,71.96
2023-02-15T15:36:31.650Z,71.91
2023-02-15T15:39:12.059Z,72.63
2023-02-15T15:41:44.004Z,72.29
2023-02-15T15:44:58.009Z,72.42
2023-02-15T15:47:44.691Z,72.75
2023-02-15T15:50:15.257Z,72.81
2023-02-15T15:52:48.714Z,72.91
2023-02-15T15:55:19.075Z,73.25
2023-02-15T15:57:50.606Z,73.34
2023-02-15T16:00:40.866Z,73.26
2023-02-15T16:03:17.097Z,73.59
2023-02-15T16:05:44.938Z,73.70
2023-02-15T16:08:12.681Z,73.83
2023-02-15T16:10:40.592Z,73.90
2023-02-15T16:13:09.050Z,74.00
2023-02-15T16:15:46.471Z,74.16
2023-02-15T16:18:17.924Z,74.24
2023-02-15T16:20:53.944Z,74.29
2023-02-15T16:23:58.546Z,74.22
2023-02-15T16:26:47.600Z,74.58
2023-02-15T16:29:17.459Z,74.75
2023-02-15T16:32:00.782Z,75.02
2023-02-15T16:34:33.333Z,74.89
2023-02-15T16:37:22.860Z,75.09
2023-02-15T16:39:51.164Z,75.57
2023-02-15T16:42:19.980Z,75.52
2023-02-15T16:44:50.023Z,75.98
2023-02-15T16:47:24.193Z,75.88
2023-02-15T16:49:54.863Z,76.21
2023-02-15T16:52:25.153Z,76.54
2023-02-15T16:54:57.393Z,76.61
2023-02-15T16:57:29.733Z,76.72
2023-02-15T17:00:02.300Z,76.64
2023-02-15T17:02:55.656Z,76.72
2023-02-15T17:05:22.604Z,76.79
2023-02-15T17:08:07.985Z,76.59
2023-02-15T17:10:38.337Z,76.72
2023-02-15T17:13:11.716Z,76.62
2023-02-15T17:15:41.305Z,76.46
2023-02-15T17:18:18.743Z,76.61
2023-02-15T17:20:47.613Z,76.58
2023-02-15T17:23:24.284Z,76.52
2023-02-15T17:25:52.814Z,76.43
2023-02-15T17:28:22.736Z,76.70
2023-02-15T17:30:53.498Z,76.79
2023-02-15T17:33:29.872Z,77.01
2023-02-15T17:36:09.829Z,76.92
2023-02-15T17:38:38.410Z,77.07
2023-02-15T17:41:06.314Z,77.19
2023-02-15T17:43:34.123Z,77.07
2023-02-15T17:46:01.995Z,76.95
2023-02-15T17:48:35.285Z,77.15
2023-02-15T17:51:05.282Z,76.94
2023-02-15T17:53:33.701Z,77.04
2023-02-15T17:56:00.436Z,76.99
2023-02-15T17:58:28.193Z,77.25
2023-02-15T18:01:16.402Z,77.31
2023-02-15T18:04:05.867Z,77.30
2023-02-15T18:06:52.131Z,77.03
2023-02-15T18:09:39.217Z,77.09
2023-02-15T18:12:20.447Z,77.49
2023-02-15T18:14:48.314Z,77.72
2023-02-15T18:17:17.489Z,77.51
2023-02-15T18:19:48.073Z,77.98
2023-02-15T18:22:19.777Z,77.80
2023-02-15T18:24:48.181Z,78.15
2023-02-15T18:27:17.229Z,77.96
2023-02-15T18:29:45.013Z,78.04
2023-02-15T18:32:19.582Z,78.18
2023-02-15T18:34:49.874Z,78.36
2023-02-15T18:37:20.737Z,78.27
2023-02-15T18:39:50.235Z,78.81
2023-02-15T18:42:22.440Z,78.96
2023-02-15T18:44:51.881Z,79.06
2023-02-15T18:47:22.542Z,79.00
2023-02-15T18:49:51.734Z,79.37
2023-02-15T18:52:22.526Z,79.56
2023-02-15T18:54:59.847Z,79.65
2023-02-15T18:57:29.295Z,79.28
2023-02-15T18:59:57.189Z,79.57
2023-02-15T19:02:25.178Z,79.54
2023-02-15T19:04:54.416Z,79.04
2023-02-15T19:07:26.182Z,79.33
2023-02-15T19:10:00.757Z,79.22
2023-02-15T19:12:29.038Z,79.74
2023-02-15T19:14:57.068Z,79.52
2023-02-15T19:17:25.577Z,80.23
2023-02-15T19:19:54.933Z,80.01
2023-02-15T19:22:27.252Z,80.65
2023-02-15T19:24:59.073Z,80.13
2023-02-15T19:27:30.075Z,79.99
2023-02-15T19:29:59.767Z,80.50
2023-02-15T19:32:28.457Z,80.91
2023-02-15T19:34:57.685Z,81.14
2023-02-15T19:37:31.397Z,80.91
2023-02-15T19:39:59.343Z,80.50
2023-02-15T19:42:27.638Z,80.43
2023-02-15T19:44:55.913Z,80.47
2023-02-15T19:47:23.711Z,80.89
2023-02-15T19:49:51.765Z,80.55
2023-02-15T19:52:24.239Z,81.50
2023-02-15T19:54:54.293Z,81.22
2023-02-15T19:57:22.561Z,80.91
2023-02-15T19:59:50.454Z,81.05
2023-02-15T20:02:20.220Z,81.15
2023-02-15T20:04:48.166Z,81.15
2023-02-15T20:07:26.071Z,81.67
2023-02-15T20:09:54.124Z,81.56
2023-02-15T20:12:28.632Z,82.11
2023-02-15T20:14:58.435Z,82.25
2023-02-15T20:17:26.338Z,82.16
2023-02-15T20:19:55.080Z,82.49
2023-02-15T20:22:26.195Z,82.39
2023-02-15T20:24:56.286Z,82.06
2023-02-15T20:27:25.051Z,81.83
2023-02-15T20:29:56.701Z,82.33
2023-02-15T20:32:25.122Z,82.58
2023-02-15T20:34:52.938Z,82.84
2023-02-15T20:37:28.910Z,82.80
2023-02-15T20:39:57.046Z,82.53
2023-02-15T20:42:25.027Z,82.81
2023-02-15T20:44:52.826Z,83.24
2023-02-15T20:47:20.691Z,82.40
2023-02-15T20:49:48.519Z,82.55
2023-02-15T20:52:20.589Z,83.27
2023-02-15T20:54:49.881Z,82.29
2023-02-15T20:57:17.697Z,83.46
2023-02-15T20:59:46.011Z,82.90
2023-02-15T21:02:18.930Z,83.31
2023-02-15T21:04:47.143Z,83.32
2023-02-15T21:07:17.023Z,83.97
2023-02-15T21:09:44.973Z,83.65
2023-02-15T21:12:15.621Z,83.65
2023-02-15T21:14:43.911Z,83.17
2023-02-15T21:17:13.003Z,83.60
2023-02-15T21:19:41.521Z,83.83
2023-02-15T21:22:13.108Z,83.23
2023-02-15T21:24:45.740Z,83.65
2023-02-15T21:27:15.120Z,83.41
2023-02-15T21:29:42.917Z,83.96
2023-02-15T21:32:11.315Z,84.44
2023-02-15T21:34:39.928Z,82.98
2023-02-15T21:37:27.454Z,83.63
2023-02-15T21:39:55.302Z,84.35
2023-02-15T21:42:41.875Z,83.79
2023-02-15T21:45:32.849Z,84.67
2023-02-15T21:48:00.763Z,83.80
2023-02-15T21:50:46.431Z,84.86
2023-02-15T21:53:21.772Z,84.40
2023-02-15T21:55:50.191Z,84.19
2023-02-15T21:58:23.002Z,85.08
2023-02-15T22:00:50.897Z,84.82
2023-02-15T22:03:18.717Z,85.64
2023-02-15T22:05:46.437Z,84.98
2023-02-15T22:08:14.613Z,85.25
2023-02-15T22:10:42.989Z,85.81
2023-02-15T22:13:14.990Z,85.23
2023-02-15T22:15:46.797Z,85.65
2023-02-15T22:18:24.206Z,85.65
2023-02-15T22:20:52.643Z,85.90
2023-02-15T22:23:20.862Z,86.26
2023-02-15T22:25:54.714Z,85.47
2023-02-15T22:28:24.252Z,86.62
2023-02-15T22:30:53.397Z,87.15
2023-02-15T22:33:27.022Z,86.71
2023-02-15T22:35:54.862Z,87.22
2023-02-15T22:38:23.017Z,86.92
2023-02-15T22:40:52.562Z,87.54
2023-02-15T22:43:28.974Z,87.42
2023-02-15T22:46:03.027Z,87.37
2023-02-15T22:48:31.174Z,86.91
2023-02-15T22:50:58.961Z,86.65
2023-02-15T22:53:27.036Z,87.66
2023-02-15T22:55:56.358Z,88.23
2023-02-15T22:58:28.125Z,87.54
2023-02-15T23:00:56.007Z,87.88
2023-02-15T23:03:28.716Z,87.54
2023-02-15T23:05:56.507Z,88.19
2023-02-15T23:08:24.304Z,88.32
2023-02-15T23:10:55.732Z,88.19
2023-02-15T23:13:26.713Z,88.33
2023-02-15T23:15:57.958Z,88.60
2023-02-15T23:18:29.457Z,88.27
2023-02-15T23:20:58.868Z,88.29
2023-02-15T23:23:31.609Z,88.26
2023-02-15T23:25:59.619Z,88.94
2023-02-15T23:28:29.857Z,89.28
2023-02-15T23:30:59.679Z,89.44
2023-02-15T23:33:32.296Z,89.03
2023-02-15T23:36:00.391Z,89.20
2023-02-15T23:38:30.286Z,89.33
2023-02-15T23:41:18.169Z,89.55
2023-02-15T23:43:48.951Z,89.97
2023-02-15T23:46:29.246Z,89.66
2023-02-15T23:48:58.638Z,89.99
2023-02-15T23:51:30.923Z,89.99
2023-02-15T23:53:59.098Z,90.39
2023-02-15T23:56:26.846Z,89.59
2023-02-15T23:58:54.722Z,89.97
